sensor_id;sensor_type;location;lat;lon;timestamp;P1;durP1;ratioP1;P2;durP2;ratioP2
12425;SDS011;6277;49.824;9.562;2023-03-11T00:00:58;1.10;;;0.70;;
12425;SDS011;6277;49.824;9.562;2023-03-11T00:03:24;0.88;;;0.60;;
12425;SDS011;6277;49.824;9.562;2023-03-11T00:05:51;0.73;;;0.73;;
12425;SDS011;6277;49.824;9.562;2023-03-11T00:08:19;0.88;;;0.80;;
12425;SDS011;6277;49.824;9.562;2023-03-11T00:10:56;1.10;;;1.00;;
12425;SDS011;6277;49.824;9.562;2023-03-11T00:13:24;1.08;;;0.90;;
12425;SDS011;6277;49.824;9.562;2023-03-11T00:15:52;1.17;;;0.80;;
12425;SDS011;6277;49.824;9.562;2023-03-11T00:18:20;0.68;;;0.60;;
12425;SDS011;6277;49.824;9.562;2023-03-11T00:20:50;0.80;;;0.70;;
12425;SDS011;6277;49.824;9.562;2023-03-11T00:23:17;0.93;;;0.70;;
12425;SDS011;6277;49.824;9.562;2023-03-11T00:25:43;0.85;;;0.60;;
12425;SDS011;6277;49.824;9.562;2023-03-11T00:28:09;0.50;;;0.50;;
12425;SDS011;6277;49.824;9.562;2023-03-11T00:30:35;0.93;;;0.82;;
12425;SDS011;6277;49.824;9.562;2023-03-11T00:33:02;0.77;;;0.70;;
12425;SDS011;6277;49.824;9.562;2023-03-11T00:35:31;0.77;;;0.77;;
12425;SDS011;6277;49.824;9.562;2023-03-11T00:37:58;0.93;;;0.88;;
12425;SDS011;6277;49.824;9.562;2023-03-11T00:40:26;0.90;;;0.90;;
12425;SDS011;6277;49.824;9.562;2023-03-11T00:42:53;0.93;;;0.93;;
12425;SDS011;6277;49.824;9.562;2023-03-11T00:45:19;0.70;;;0.70;;
12425;SDS011;6277;49.824;9.562;2023-03-11T00:47:45;0.77;;;0.73;;
12425;SDS011;6277;49.824;9.562;2023-03-11T00:50:32;0.77;;;0.70;;
12425;SDS011;6277;49.824;9.562;2023-03-11T00:52:57;0.93;;;0.70;;
12425;SDS011;6277;49.824;9.562;2023-03-11T00:55:25;1.23;;;0.82;;
12425;SDS011;6277;49.824;9.562;2023-03-11T00:57:53;0.88;;;0.82;;
12425;SDS011;6277;49.824;9.562;2023-03-11T01:00:20;0.70;;;0.70;;
12425;SDS011;6277;49.824;9.562;2023-03-11T01:02:47;1.08;;;0.90;;
12425;SDS011;6277;49.824;9.562;2023-03-11T01:05:13;1.08;;;0.82;;
12425;SDS011;6277;49.824;9.562;2023-03-11T01:07:39;1.40;;;0.80;;
12425;SDS011;6277;49.824;9.562;2023-03-11T01:10:05;1.23;;;0.82;;
12425;SDS011;6277;49.824;9.562;2023-03-11T01:12:32;1.00;;;0.60;;
12425;SDS011;6277;49.824;9.562;2023-03-11T01:14:58;0.80;;;0.70;;
12425;SDS011;6277;49.824;9.562;2023-03-11T01:17:24;1.30;;;0.80;;
12425;SDS011;6277;49.824;9.562;2023-03-11T01:19:49;0.98;;;0.77;;
12425;SDS011;6277;49.824;9.562;2023-03-11T01:22:15;1.20;;;0.70;;
12425;SDS011;6277;49.824;9.562;2023-03-11T01:24:40;0.80;;;0.70;;
12425;SDS011;6277;49.824;9.562;2023-03-11T01:27:06;1.50;;;0.90;;
12425;SDS011;6277;49.824;9.562;2023-03-11T01:29:32;1.05;;;0.95;;
12425;SDS011;6277;49.824;9.562;2023-03-11T01:31:57;1.25;;;0.70;;
12425;SDS011;6277;49.824;9.562;2023-03-11T01:34:23;1.25;;;0.70;;
12425;SDS011;6277;49.824;9.562;2023-03-11T01:36:48;1.20;;;0.70;;
12425;SDS011;6277;49.824;9.562;2023-03-11T01:39:14;1.48;;;0.80;;
12425;SDS011;6277;49.824;9.562;2023-03-11T01:41:40;1.77;;;0.80;;
12425;SDS011;6277;49.824;9.562;2023-03-11T01:44:05;0.98;;;0.77;;
12425;SDS011;6277;49.824;9.562;2023-03-11T01:49:19;1.48;;;0.80;;
12425;SDS011;6277;49.824;9.562;2023-03-11T01:51:46;2.20;;;0.80;;
12425;SDS011;6277;49.824;9.562;2023-03-11T01:54:17;1.70;;;0.82;;
12425;SDS011;6277;49.824;9.562;2023-03-11T01:56:46;1.85;;;0.70;;
12425;SDS011;6277;49.824;9.562;2023-03-11T01:59:14;1.35;;;0.70;;
12425;SDS011;6277;49.824;9.562;2023-03-11T02:04:36;1.48;;;0.60;;
12425;SDS011;6277;49.824;9.562;2023-03-11T02:07:03;0.93;;;0.50;;
12425;SDS011;6277;49.824;9.562;2023-03-11T02:09:30;0.63;;;0.50;;
12425;SDS011;6277;49.824;9.562;2023-03-11T02:11:56;1.92;;;0.55;;
12425;SDS011;6277;49.824;9.562;2023-03-11T02:14:22;1.05;;;0.50;;
12425;SDS011;6277;49.824;9.562;2023-03-11T02:16:49;0.82;;;0.50;;
12425;SDS011;6277;49.824;9.562;2023-03-11T02:19:35;0.60;;;0.50;;
12425;SDS011;6277;49.824;9.562;2023-03-11T02:22:20;2.80;;;0.55;;
12425;SDS011;6277;49.824;9.562;2023-03-11T02:24:48;0.50;;;0.50;;
12425;SDS011;6277;49.824;9.562;2023-03-11T02:27:21;1.83;;;0.55;;
12425;SDS011;6277;49.824;9.562;2023-03-11T02:29:49;1.00;;;0.52;;
12425;SDS011;6277;49.824;9.562;2023-03-11T02:32:16;2.13;;;0.60;;
12425;SDS011;6277;49.824;9.562;2023-03-11T02:34:42;1.75;;;0.60;;
12425;SDS011;6277;49.824;9.562;2023-03-11T02:37:10;1.67;;;0.60;;
12425;SDS011;6277;49.824;9.562;2023-03-11T02:39:41;1.58;;;0.60;;
12425;SDS011;6277;49.824;9.562;2023-03-11T02:42:13;0.95;;;0.43;;
12425;SDS011;6277;49.824;9.562;2023-03-11T02:44:54;0.85;;;0.50;;
12425;SDS011;6277;49.824;9.562;2023-03-11T02:47:23;4.03;;;0.80;;
12425;SDS011;6277;49.824;9.562;2023-03-11T02:49:50;1.48;;;0.63;;
12425;SDS011;6277;49.824;9.562;2023-03-11T02:52:16;1.27;;;0.50;;
12425;SDS011;6277;49.824;9.562;2023-03-11T02:54:42;1.65;;;0.50;;
12425;SDS011;6277;49.824;9.562;2023-03-11T02:57:07;1.95;;;0.60;;
12425;SDS011;6277;49.824;9.562;2023-03-11T02:59:33;1.15;;;0.60;;
12425;SDS011;6277;49.824;9.562;2023-03-11T03:01:58;1.98;;;0.60;;
12425;SDS011;6277;49.824;9.562;2023-03-11T03:04:24;1.80;;;0.70;;
12425;SDS011;6277;49.824;9.562;2023-03-11T03:06:50;2.03;;;0.77;;
12425;SDS011;6277;49.824;9.562;2023-03-11T03:09:15;3.90;;;0.70;;
12425;SDS011;6277;49.824;9.562;2023-03-11T03:11:41;1.88;;;0.75;;
12425;SDS011;6277;49.824;9.562;2023-03-11T03:14:06;2.38;;;0.77;;
12425;SDS011;6277;49.824;9.562;2023-03-11T03:16:32;3.00;;;0.90;;
12425;SDS011;6277;49.824;9.562;2023-03-11T03:18:57;1.00;;;0.55;;
12425;SDS011;6277;49.824;9.562;2023-03-11T03:21:23;2.38;;;0.73;;
12425;SDS011;6277;49.824;9.562;2023-03-11T03:23:48;1.20;;;0.60;;
12425;SDS011;6277;49.824;9.562;2023-03-11T03:26:14;1.42;;;0.73;;
12425;SDS011;6277;49.824;9.562;2023-03-11T03:28:39;1.92;;;0.80;;
12425;SDS011;6277;49.824;9.562;2023-03-11T03:31:05;2.50;;;0.60;;
12425;SDS011;6277;49.824;9.562;2023-03-11T03:33:32;2.65;;;0.60;;
12425;SDS011;6277;49.824;9.562;2023-03-11T03:35:58;2.40;;;0.70;;
12425;SDS011;6277;49.824;9.562;2023-03-11T03:38:24;2.63;;;0.70;;
12425;SDS011;6277;49.824;9.562;2023-03-11T03:40:49;2.72;;;0.75;;
12425;SDS011;6277;49.824;9.562;2023-03-11T03:43:15;1.33;;;0.70;;
12425;SDS011;6277;49.824;9.562;2023-03-11T03:45:40;0.63;;;0.50;;
12425;SDS011;6277;49.824;9.562;2023-03-11T03:48:06;2.05;;;0.70;;
12425;SDS011;6277;49.824;9.562;2023-03-11T03:50:32;1.77;;;0.75;;
12425;SDS011;6277;49.824;9.562;2023-03-11T03:52:57;3.47;;;0.85;;
12425;SDS011;6277;49.824;9.562;2023-03-11T03:55:23;1.88;;;0.77;;
12425;SDS011;6277;49.824;9.562;2023-03-11T03:57:48;1.38;;;0.80;;
12425;SDS011;6277;49.824;9.562;2023-03-11T04:00:14;3.63;;;1.00;;
12425;SDS011;6277;49.824;9.562;2023-03-11T04:02:40;3.25;;;0.70;;
12425;SDS011;6277;49.824;9.562;2023-03-11T04:05:06;3.60;;;0.77;;
12425;SDS011;6277;49.824;9.562;2023-03-11T04:07:33;2.08;;;0.55;;
12425;SDS011;6277;49.824;9.562;2023-03-11T04:09:59;1.80;;;0.65;;
12425;SDS011;6277;49.824;9.562;2023-03-11T04:12:25;1.73;;;0.60;;
12425;SDS011;6277;49.824;9.562;2023-03-11T04:14:51;3.35;;;0.90;;
12425;SDS011;6277;49.824;9.562;2023-03-11T04:17:16;1.52;;;0.57;;
12425;SDS011;6277;49.824;9.562;2023-03-11T04:19:42;1.73;;;0.70;;
12425;SDS011;6277;49.824;9.562;2023-03-11T04:22:08;2.08;;;0.77;;
12425;SDS011;6277;49.824;9.562;2023-03-11T04:24:33;2.10;;;0.70;;
12425;SDS011;6277;49.824;9.562;2023-03-11T04:26:59;2.97;;;0.90;;
12425;SDS011;6277;49.824;9.562;2023-03-11T04:29:25;2.45;;;0.80;;
12425;SDS011;6277;49.824;9.562;2023-03-11T04:31:50;3.90;;;0.93;;
12425;SDS011;6277;49.824;9.562;2023-03-11T04:34:16;2.40;;;0.75;;
12425;SDS011;6277;49.824;9.562;2023-03-11T04:36:41;2.65;;;0.70;;
12425;SDS011;6277;49.824;9.562;2023-03-11T04:39:07;1.38;;;0.70;;
12425;SDS011;6277;49.824;9.562;2023-03-11T04:41:32;2.55;;;0.80;;
12425;SDS011;6277;49.824;9.562;2023-03-11T04:43:58;1.98;;;0.75;;
12425;SDS011;6277;49.824;9.562;2023-03-11T04:46:24;0.93;;;0.70;;
12425;SDS011;6277;49.824;9.562;2023-03-11T04:48:50;2.58;;;0.70;;
12425;SDS011;6277;49.824;9.562;2023-03-11T04:51:16;2.20;;;0.90;;
12425;SDS011;6277;49.824;9.562;2023-03-11T04:53:41;2.33;;;0.77;;
12425;SDS011;6277;49.824;9.562;2023-03-11T04:56:07;2.47;;;0.88;;
12425;SDS011;6277;49.824;9.562;2023-03-11T04:58:32;5.75;;;1.02;;
12425;SDS011;6277;49.824;9.562;2023-03-11T05:00:58;1.88;;;0.82;;
12425;SDS011;6277;49.824;9.562;2023-03-11T05:03:23;3.72;;;0.98;;
12425;SDS011;6277;49.824;9.562;2023-03-11T05:05:49;1.35;;;0.70;;
12425;SDS011;6277;49.824;9.562;2023-03-11T05:08:16;2.15;;;0.60;;
12425;SDS011;6277;49.824;9.562;2023-03-11T05:10:42;3.63;;;1.00;;
12425;SDS011;6277;49.824;9.562;2023-03-11T05:13:08;2.25;;;0.60;;
12425;SDS011;6277;49.824;9.562;2023-03-11T05:15:34;2.47;;;0.88;;
12425;SDS011;6277;49.824;9.562;2023-03-11T05:18:00;3.67;;;0.90;;
12425;SDS011;6277;49.824;9.562;2023-03-11T05:20:26;2.05;;;0.75;;
12425;SDS011;6277;49.824;9.562;2023-03-11T05:22:52;4.57;;;0.85;;
12425;SDS011;6277;49.824;9.562;2023-03-11T05:25:18;2.70;;;0.70;;
12425;SDS011;6277;49.824;9.562;2023-03-11T05:27:44;1.88;;;0.80;;
12425;SDS011;6277;49.824;9.562;2023-03-11T05:30:09;1.90;;;0.70;;
12425;SDS011;6277;49.824;9.562;2023-03-11T05:32:35;3.03;;;1.00;;
12425;SDS011;6277;49.824;9.562;2023-03-11T05:35:01;3.25;;;0.68;;
12425;SDS011;6277;49.824;9.562;2023-03-11T05:37:27;1.38;;;0.60;;
12425;SDS011;6277;49.824;9.562;2023-03-11T05:39:55;3.80;;;1.00;;
12425;SDS011;6277;49.824;9.562;2023-03-11T05:42:21;2.25;;;0.80;;
12425;SDS011;6277;49.824;9.562;2023-03-11T05:44:47;2.10;;;1.13;;
12425;SDS011;6277;49.824;9.562;2023-03-11T05:47:12;1.35;;;0.80;;
12425;SDS011;6277;49.824;9.562;2023-03-11T05:49:38;2.78;;;0.85;;
12425;SDS011;6277;49.824;9.562;2023-03-11T05:52:03;3.90;;;1.00;;
12425;SDS011;6277;49.824;9.562;2023-03-11T05:54:29;1.92;;;1.00;;
12425;SDS011;6277;49.824;9.562;2023-03-11T05:56:54;2.38;;;0.90;;
12425;SDS011;6277;49.824;9.562;2023-03-11T05:59:20;3.22;;;1.40;;
12425;SDS011;6277;49.824;9.562;2023-03-11T06:01:46;2.20;;;1.20;;
12425;SDS011;6277;49.824;9.562;2023-03-11T06:04:11;3.83;;;1.33;;
12425;SDS011;6277;49.824;9.562;2023-03-11T06:06:37;1.95;;;1.10;;
12425;SDS011;6277;49.824;9.562;2023-03-11T06:09:05;2.55;;;1.15;;
12425;SDS011;6277;49.824;9.562;2023-03-11T06:11:31;2.17;;;1.10;;
12425;SDS011;6277;49.824;9.562;2023-03-11T06:13:57;3.10;;;1.23;;
12425;SDS011;6277;49.824;9.562;2023-03-11T06:16:23;2.85;;;1.00;;
12425;SDS011;6277;49.824;9.562;2023-03-11T06:18:49;2.10;;;1.10;;
12425;SDS011;6277;49.824;9.562;2023-03-11T06:21:17;3.95;;;1.40;;
12425;SDS011;6277;49.824;9.562;2023-03-11T06:23:44;5.03;;;1.50;;
12425;SDS011;6277;49.824;9.562;2023-03-11T06:26:11;2.13;;;1.17;;
12425;SDS011;6277;49.824;9.562;2023-03-11T06:28:40;3.13;;;2.00;;
12425;SDS011;6277;49.824;9.562;2023-03-11T06:31:07;1.88;;;1.13;;
12425;SDS011;6277;49.824;9.562;2023-03-11T06:33:38;2.30;;;1.10;;
12425;SDS011;6277;49.824;9.562;2023-03-11T06:36:04;2.25;;;1.23;;
12425;SDS011;6277;49.824;9.562;2023-03-11T06:38:30;3.42;;;1.42;;
12425;SDS011;6277;49.824;9.562;2023-03-11T06:41:00;2.47;;;1.35;;
12425;SDS011;6277;49.824;9.562;2023-03-11T06:43:28;2.67;;;1.40;;
12425;SDS011;6277;49.824;9.562;2023-03-11T06:45:55;3.00;;;1.55;;
12425;SDS011;6277;49.824;9.562;2023-03-11T06:48:21;3.47;;;1.50;;
12425;SDS011;6277;49.824;9.562;2023-03-11T06:50:53;2.88;;;1.60;;
12425;SDS011;6277;49.824;9.562;2023-03-11T06:53:20;2.92;;;1.75;;
12425;SDS011;6277;49.824;9.562;2023-03-11T06:55:45;3.92;;;1.60;;
12425;SDS011;6277;49.824;9.562;2023-03-11T06:58:21;5.15;;;1.45;;
12425;SDS011;6277;49.824;9.562;2023-03-11T07:00:46;2.92;;;1.40;;
12425;SDS011;6277;49.824;9.562;2023-03-11T07:03:12;3.90;;;1.40;;
12425;SDS011;6277;49.824;9.562;2023-03-11T07:05:37;4.20;;;1.77;;
12425;SDS011;6277;49.824;9.562;2023-03-11T07:08:03;5.28;;;1.40;;
12425;SDS011;6277;49.824;9.562;2023-03-11T07:10:28;4.35;;;1.90;;
12425;SDS011;6277;49.824;9.562;2023-03-11T07:12:54;2.63;;;1.40;;
12425;SDS011;6277;49.824;9.562;2023-03-11T07:15:19;2.28;;;1.40;;
12425;SDS011;6277;49.824;9.562;2023-03-11T07:17:45;4.05;;;1.75;;
12425;SDS011;6277;49.824;9.562;2023-03-11T07:20:11;4.57;;;1.00;;
12425;SDS011;6277;49.824;9.562;2023-03-11T07:22:36;3.92;;;1.20;;
12425;SDS011;6277;49.824;9.562;2023-03-11T07:25:02;3.65;;;1.25;;
12425;SDS011;6277;49.824;9.562;2023-03-11T07:27:28;4.35;;;1.40;;
12425;SDS011;6277;49.824;9.562;2023-03-11T07:29:53;3.42;;;1.23;;
12425;SDS011;6277;49.824;9.562;2023-03-11T07:32:19;2.22;;;1.25;;
12425;SDS011;6277;49.824;9.562;2023-03-11T07:34:44;2.33;;;1.13;;
12425;SDS011;6277;49.824;9.562;2023-03-11T07:37:10;4.22;;;1.17;;
12425;SDS011;6277;49.824;9.562;2023-03-11T07:39:35;3.42;;;0.90;;
12425;SDS011;6277;49.824;9.562;2023-03-11T07:42:02;2.53;;;0.90;;
12425;SDS011;6277;49.824;9.562;2023-03-11T07:44:28;2.78;;;1.05;;
12425;SDS011;6277;49.824;9.562;2023-03-11T07:46:54;2.42;;;1.00;;
12425;SDS011;6277;49.824;9.562;2023-03-11T07:49:19;3.22;;;1.10;;
12425;SDS011;6277;49.824;9.562;2023-03-11T07:51:45;2.88;;;1.13;;
12425;SDS011;6277;49.824;9.562;2023-03-11T07:54:11;2.47;;;1.15;;
12425;SDS011;6277;49.824;9.562;2023-03-11T07:56:37;3.15;;;1.33;;
12425;SDS011;6277;49.824;9.562;2023-03-11T07:59:03;3.38;;;1.20;;
12425;SDS011;6277;49.824;9.562;2023-03-11T08:01:30;2.35;;;1.02;;
12425;SDS011;6277;49.824;9.562;2023-03-11T08:04:00;2.65;;;1.00;;
12425;SDS011;6277;49.824;9.562;2023-03-11T08:06:28;3.22;;;1.20;;
12425;SDS011;6277;49.824;9.562;2023-03-11T08:08:56;2.33;;;1.33;;
12425;SDS011;6277;49.824;9.562;2023-03-11T08:11:23;3.75;;;1.35;;
12425;SDS011;6277;49.824;9.562;2023-03-11T08:13:49;3.20;;;1.20;;
12425;SDS011;6277;49.824;9.562;2023-03-11T08:16:16;3.63;;;1.13;;
12425;SDS011;6277;49.824;9.562;2023-03-11T08:18:44;2.58;;;0.90;;
12425;SDS011;6277;49.824;9.562;2023-03-11T08:21:11;6.00;;;1.30;;
12425;SDS011;6277;49.824;9.562;2023-03-11T08:23:38;3.40;;;1.00;;
12425;SDS011;6277;49.824;9.562;2023-03-11T08:26:04;2.38;;;1.20;;
12425;SDS011;6277;49.824;9.562;2023-03-11T08:28:31;1.92;;;1.02;;
12425;SDS011;6277;49.824;9.562;2023-03-11T08:30:58;3.90;;;1.35;;
12425;SDS011;6277;49.824;9.562;2023-03-11T08:33:23;2.65;;;0.93;;
12425;SDS011;6277;49.824;9.562;2023-03-11T08:35:49;1.80;;;1.00;;
12425;SDS011;6277;49.824;9.562;2023-03-11T08:38:14;2.03;;;0.70;;
12425;SDS011;6277;49.824;9.562;2023-03-11T08:40:40;3.58;;;1.20;;
12425;SDS011;6277;49.824;9.562;2023-03-11T08:43:06;3.00;;;1.00;;
12425;SDS011;6277;49.824;9.562;2023-03-11T08:45:31;2.10;;;1.02;;
12425;SDS011;6277;49.824;9.562;2023-03-11T08:47:57;2.60;;;0.90;;
12425;SDS011;6277;49.824;9.562;2023-03-11T08:50:23;2.50;;;0.80;;
12425;SDS011;6277;49.824;9.562;2023-03-11T08:52:48;1.95;;;0.90;;
12425;SDS011;6277;49.824;9.562;2023-03-11T08:55:15;2.85;;;0.88;;
12425;SDS011;6277;49.824;9.562;2023-03-11T08:57:47;2.38;;;0.93;;
12425;SDS011;6277;49.824;9.562;2023-03-11T09:00:13;1.83;;;0.70;;
12425;SDS011;6277;49.824;9.562;2023-03-11T09:02:38;1.50;;;0.88;;
12425;SDS011;6277;49.824;9.562;2023-03-11T09:05:05;2.47;;;0.77;;
12425;SDS011;6277;49.824;9.562;2023-03-11T09:07:31;1.90;;;0.90;;
12425;SDS011;6277;49.824;9.562;2023-03-11T09:09:56;2.72;;;0.70;;
12425;SDS011;6277;49.824;9.562;2023-03-11T09:12:22;2.47;;;0.90;;
12425;SDS011;6277;49.824;9.562;2023-03-11T09:14:47;2.42;;;0.90;;
12425;SDS011;6277;49.824;9.562;2023-03-11T09:17:13;1.33;;;0.60;;
12425;SDS011;6277;49.824;9.562;2023-03-11T09:19:39;3.22;;;0.75;;
12425;SDS011;6277;49.824;9.562;2023-03-11T09:22:04;2.33;;;0.70;;
12425;SDS011;6277;49.824;9.562;2023-03-11T09:24:32;3.10;;;0.70;;
12425;SDS011;6277;49.824;9.562;2023-03-11T09:26:58;2.60;;;0.93;;
12425;SDS011;6277;49.824;9.562;2023-03-11T09:29:24;2.63;;;0.75;;
12425;SDS011;6277;49.824;9.562;2023-03-11T09:31:50;2.03;;;0.90;;
12425;SDS011;6277;49.824;9.562;2023-03-11T09:34:15;1.27;;;0.63;;
12425;SDS011;6277;49.824;9.562;2023-03-11T09:36:41;2.05;;;0.70;;
12425;SDS011;6277;49.824;9.562;2023-03-11T09:39:07;3.50;;;1.00;;
12425;SDS011;6277;49.824;9.562;2023-03-11T09:41:53;2.15;;;1.00;;
12425;SDS011;6277;49.824;9.562;2023-03-11T09:44:27;2.00;;;0.82;;
12425;SDS011;6277;49.824;9.562;2023-03-11T09:58:16;1.67;;;0.90;;
12425;SDS011;6277;49.824;9.562;2023-03-11T10:00:47;2.53;;;1.00;;
12425;SDS011;6277;49.824;9.562;2023-03-11T10:03:30;2.83;;;0.98;;
12425;SDS011;6277;49.824;9.562;2023-03-11T10:06:11;1.80;;;0.77;;
12425;SDS011;6277;49.824;9.562;2023-03-11T10:08:42;2.20;;;0.85;;
12425;SDS011;6277;49.824;9.562;2023-03-11T10:17:40;2.35;;;1.00;;
12425;SDS011;6277;49.824;9.562;2023-03-11T10:22:51;2.28;;;0.98;;
12425;SDS011;6277;49.824;9.562;2023-03-11T10:25:46;1.63;;;0.80;;
12425;SDS011;6277;49.824;9.562;2023-03-11T10:31:02;3.72;;;1.02;;
12425;SDS011;6277;49.824;9.562;2023-03-11T10:36:59;3.92;;;1.00;;
12425;SDS011;6277;49.824;9.562;2023-03-11T10:39:30;3.77;;;1.50;;
12425;SDS011;6277;49.824;9.562;2023-03-11T10:41:58;2.72;;;1.00;;
12425;SDS011;6277;49.824;9.562;2023-03-11T10:44:33;3.53;;;1.00;;
12425;SDS011;6277;49.824;9.562;2023-03-11T10:47:01;5.32;;;1.02;;
12425;SDS011;6277;49.824;9.562;2023-03-11T10:49:27;1.77;;;1.00;;
12425;SDS011;6277;49.824;9.562;2023-03-11T10:51:54;2.03;;;0.90;;
12425;SDS011;6277;49.824;9.562;2023-03-11T10:56:52;3.15;;;1.60;;
12425;SDS011;6277;49.824;9.562;2023-03-11T11:01:54;2.75;;;1.23;;
12425;SDS011;6277;49.824;9.562;2023-03-11T11:04:47;3.63;;;1.10;;
12425;SDS011;6277;49.824;9.562;2023-03-11T11:07:34;1.83;;;1.00;;
12425;SDS011;6277;49.824;9.562;2023-03-11T11:15:22;1.83;;;0.90;;
12425;SDS011;6277;49.824;9.562;2023-03-11T11:17:51;1.42;;;0.80;;
12425;SDS011;6277;49.824;9.562;2023-03-11T11:20:40;2.85;;;0.98;;
12425;SDS011;6277;49.824;9.562;2023-03-11T11:26:14;2.28;;;0.90;;
12425;SDS011;6277;49.824;9.562;2023-03-11T11:29:30;1.20;;;0.70;;
12425;SDS011;6277;49.824;9.562;2023-03-11T11:31:37;1.60;;;0.80;;
12425;SDS011;6277;49.824;9.562;2023-03-11T11:34:21;1.95;;;1.08;;
12425;SDS011;6277;49.824;9.562;2023-03-11T11:36:48;1.63;;;0.88;;
12425;SDS011;6277;49.824;9.562;2023-03-11T11:39:15;2.33;;;0.98;;
12425;SDS011;6277;49.824;9.562;2023-03-11T11:41:44;1.98;;;0.77;;
12425;SDS011;6277;49.824;9.562;2023-03-11T11:44:12;1.77;;;0.60;;
12425;SDS011;6277;49.824;9.562;2023-03-11T11:46:45;1.63;;;0.75;;
12425;SDS011;6277;49.824;9.562;2023-03-11T11:51:59;5.07;;;0.93;;
12425;SDS011;6277;49.824;9.562;2023-03-11T11:54:32;2.58;;;0.90;;
12425;SDS011;6277;49.824;9.562;2023-03-11T11:57:15;4.47;;;0.90;;
12425;SDS011;6277;49.824;9.562;2023-03-11T11:59:42;1.95;;;0.90;;
12425;SDS011;6277;49.824;9.562;2023-03-11T12:04:54;2.10;;;0.70;;
12425;SDS011;6277;49.824;9.562;2023-03-11T12:13:08;2.15;;;0.85;;
12425;SDS011;6277;49.824;9.562;2023-03-11T12:16:22;2.63;;;0.90;;
12425;SDS011;6277;49.824;9.562;2023-03-11T12:24:32;1.77;;;1.00;;
12425;SDS011;6277;49.824;9.562;2023-03-11T12:27:24;3.08;;;1.00;;
12425;SDS011;6277;49.824;9.562;2023-03-11T12:29:54;3.33;;;1.13;;
12425;SDS011;6277;49.824;9.562;2023-03-11T12:32:36;2.63;;;1.00;;
12425;SDS011;6277;49.824;9.562;2023-03-11T12:35:13;2.40;;;1.00;;
12425;SDS011;6277;49.824;9.562;2023-03-11T12:37:54;2.90;;;1.13;;
12425;SDS011;6277;49.824;9.562;2023-03-11T12:45:54;2.78;;;1.17;;
12425;SDS011;6277;49.824;9.562;2023-03-11T12:48:33;3.95;;;1.30;;
12425;SDS011;6277;49.824;9.562;2023-03-11T13:05:47;2.20;;;1.20;;
12425;SDS011;6277;49.824;9.562;2023-03-11T13:08:28;4.28;;;1.30;;
12425;SDS011;6277;49.824;9.562;2023-03-11T13:16:44;1.55;;;0.90;;
12425;SDS011;6277;49.824;9.562;2023-03-11T13:21:51;2.05;;;0.98;;
12425;SDS011;6277;49.824;9.562;2023-03-11T13:26:48;1.77;;;1.20;;
12425;SDS011;6277;49.824;9.562;2023-03-11T13:29:20;1.80;;;1.13;;
12425;SDS011;6277;49.824;9.562;2023-03-11T13:32:24;2.10;;;1.27;;
12425;SDS011;6277;49.824;9.562;2023-03-11T13:37:45;4.22;;;1.20;;
12425;SDS011;6277;49.824;9.562;2023-03-11T13:40:18;1.80;;;0.90;;
12425;SDS011;6277;49.824;9.562;2023-03-11T13:43:04;1.50;;;0.80;;
12425;SDS011;6277;49.824;9.562;2023-03-11T13:45:38;2.83;;;0.93;;
12425;SDS011;6277;49.824;9.562;2023-03-11T13:48:15;3.10;;;0.90;;
12425;SDS011;6277;49.824;9.562;2023-03-11T13:50:52;2.72;;;0.90;;
12425;SDS011;6277;49.824;9.562;2023-03-11T13:53:41;2.63;;;1.00;;
12425;SDS011;6277;49.824;9.562;2023-03-11T13:56:15;3.50;;;0.98;;
12425;SDS011;6277;49.824;9.562;2023-03-11T13:58:42;2.55;;;0.80;;
12425;SDS011;6277;49.824;9.562;2023-03-11T14:01:09;3.67;;;1.05;;
12425;SDS011;6277;49.824;9.562;2023-03-11T14:03:40;4.38;;;1.08;;
12425;SDS011;6277;49.824;9.562;2023-03-11T14:06:08;2.67;;;0.95;;
12425;SDS011;6277;49.824;9.562;2023-03-11T14:08:38;0.95;;;0.60;;
12425;SDS011;6277;49.824;9.562;2023-03-11T14:16:17;2.70;;;0.82;;
12425;SDS011;6277;49.824;9.562;2023-03-11T14:18:47;2.10;;;0.90;;
12425;SDS011;6277;49.824;9.562;2023-03-11T14:21:25;1.90;;;0.88;;
12425;SDS011;6277;49.824;9.562;2023-03-11T14:23:52;1.90;;;0.80;;
12425;SDS011;6277;49.824;9.562;2023-03-11T14:26:26;1.70;;;0.80;;
12425;SDS011;6277;49.824;9.562;2023-03-11T14:29:06;2.28;;;1.00;;
12425;SDS011;6277;49.824;9.562;2023-03-11T14:31:39;3.85;;;0.80;;
12425;SDS011;6277;49.824;9.562;2023-03-11T14:34:15;2.17;;;0.80;;
12425;SDS011;6277;49.824;9.562;2023-03-11T14:36:48;1.98;;;0.77;;
12425;SDS011;6277;49.824;9.562;2023-03-11T14:39:32;3.30;;;1.00;;
12425;SDS011;6277;49.824;9.562;2023-03-11T14:44:43;1.83;;;0.68;;
12425;SDS011;6277;49.824;9.562;2023-03-11T14:47:16;1.85;;;1.02;;
12425;SDS011;6277;49.824;9.562;2023-03-11T14:50:04;1.42;;;0.77;;
12425;SDS011;6277;49.824;9.562;2023-03-11T14:52:40;2.30;;;0.88;;
12425;SDS011;6277;49.824;9.562;2023-03-11T14:55:15;2.17;;;1.10;;
12425;SDS011;6277;49.824;9.562;2023-03-11T14:57:55;2.88;;;1.00;;
12425;SDS011;6277;49.824;9.562;2023-03-11T15:00:26;3.50;;;1.20;;
12425;SDS011;6277;49.824;9.562;2023-03-11T15:05:35;4.05;;;1.23;;
12425;SDS011;6277;49.824;9.562;2023-03-11T15:08:12;4.15;;;1.90;;
12425;SDS011;6277;49.824;9.562;2023-03-11T15:13:38;5.18;;;1.85;;
12425;SDS011;6277;49.824;9.562;2023-03-11T15:16:06;4.05;;;1.52;;
12425;SDS011;6277;49.824;9.562;2023-03-11T15:18:45;3.90;;;1.80;;
12425;SDS011;6277;49.824;9.562;2023-03-11T15:23:43;2.65;;;1.42;;
12425;SDS011;6277;49.824;9.562;2023-03-11T15:26:20;4.22;;;1.55;;
12425;SDS011;6277;49.824;9.562;2023-03-11T15:28:51;2.92;;;1.13;;
12425;SDS011;6277;49.824;9.562;2023-03-11T15:33:44;3.78;;;1.38;;
12425;SDS011;6277;49.824;9.562;2023-03-11T15:39:10;2.78;;;1.20;;
12425;SDS011;6277;49.824;9.562;2023-03-11T15:41:41;3.83;;;1.20;;
12425;SDS011;6277;49.824;9.562;2023-03-11T15:44:18;2.70;;;1.25;;
12425;SDS011;6277;49.824;9.562;2023-03-11T15:46:48;2.00;;;1.02;;
12425;SDS011;6277;49.824;9.562;2023-03-11T15:49:14;3.20;;;1.05;;
12425;SDS011;6277;49.824;9.562;2023-03-11T15:51:40;2.35;;;0.82;;
12425;SDS011;6277;49.824;9.562;2023-03-11T15:54:05;1.63;;;0.68;;
12425;SDS011;6277;49.824;9.562;2023-03-11T15:56:31;2.15;;;0.80;;
12425;SDS011;6277;49.824;9.562;2023-03-11T15:58:57;1.42;;;0.70;;
12425;SDS011;6277;49.824;9.562;2023-03-11T16:01:23;1.80;;;0.73;;
12425;SDS011;6277;49.824;9.562;2023-03-11T16:03:52;1.20;;;0.85;;
12425;SDS011;6277;49.824;9.562;2023-03-11T16:06:19;1.10;;;0.75;;
12425;SDS011;6277;49.824;9.562;2023-03-11T16:08:46;2.15;;;1.00;;
12425;SDS011;6277;49.824;9.562;2023-03-11T16:11:13;2.53;;;0.90;;
12425;SDS011;6277;49.824;9.562;2023-03-11T16:13:39;2.50;;;0.98;;
12425;SDS011;6277;49.824;9.562;2023-03-11T16:16:04;3.40;;;0.82;;
12425;SDS011;6277;49.824;9.562;2023-03-11T16:18:30;1.42;;;0.77;;
12425;SDS011;6277;49.824;9.562;2023-03-11T16:20:56;2.50;;;1.00;;
12425;SDS011;6277;49.824;9.562;2023-03-11T16:23:25;1.00;;;0.80;;
12425;SDS011;6277;49.824;9.562;2023-03-11T16:25:56;1.30;;;0.80;;
12425;SDS011;6277;49.824;9.562;2023-03-11T16:28:24;2.30;;;0.98;;
12425;SDS011;6277;49.824;9.562;2023-03-11T16:30:49;2.35;;;0.85;;
12425;SDS011;6277;49.824;9.562;2023-03-11T16:33:16;2.05;;;0.80;;
12425;SDS011;6277;49.824;9.562;2023-03-11T16:35:42;2.13;;;0.88;;
12425;SDS011;6277;49.824;9.562;2023-03-11T16:38:07;2.67;;;1.17;;
12425;SDS011;6277;49.824;9.562;2023-03-11T16:40:33;3.97;;;1.15;;
12425;SDS011;6277;49.824;9.562;2023-03-11T16:43:00;2.53;;;1.20;;
12425;SDS011;6277;49.824;9.562;2023-03-11T16:45:28;1.77;;;1.00;;
12425;SDS011;6277;49.824;9.562;2023-03-11T16:47:53;4.47;;;1.17;;
12425;SDS011;6277;49.824;9.562;2023-03-11T16:50:19;1.60;;;1.00;;
12425;SDS011;6277;49.824;9.562;2023-03-11T16:52:47;2.67;;;0.93;;
12425;SDS011;6277;49.824;9.562;2023-03-11T16:55:13;3.10;;;1.30;;
12425;SDS011;6277;49.824;9.562;2023-03-11T16:57:38;3.47;;;1.65;;
12425;SDS011;6277;49.824;9.562;2023-03-11T17:00:04;5.68;;;2.28;;
12425;SDS011;6277;49.824;9.562;2023-03-11T17:02:31;6.50;;;2.72;;
12425;SDS011;6277;49.824;9.562;2023-03-11T17:04:57;7.53;;;3.20;;
12425;SDS011;6277;49.824;9.562;2023-03-11T17:07:22;7.22;;;3.15;;